Time;durP1;ratioP1;P1;durP2;ratioP2;P2;SDS_P1;SDS_P2;PMS_P1;PMS_P2;Temp;Humidity;BMP_temperature;BMP_pressure;BME280_temperature;BME280_humidity;BME280_pressure;Samples;Min_cycle;Max_cycle;Signal;HPM_P1;HPM_P2
2022/01/27 00:04:15;;;;;;;33.78;11.18;;;;;;;11.22;45.39;102724.97;5036370;28;20033;-63
2022/01/27 00:06:41;;;;;;;29.00;10.43;;;;;;;11.27;45.47;102729.13;5020188;28;20059;-63
2022/01/27 00:09:40;;;;;;;25.40;11.10;;;;;;;11.27;45.69;102723.78;5036107;28;20033;-63
2022/01/27 00:12:06;;;;;;;29.92;11.20;;;;;;;11.23;45.69;102721.31;5035576;28;20112;-63
2022/01/27 00:14:31;;;;;;;29.63;10.18;;;;;;;11.22;46.01;102719.63;5053333;28;20103;-63
2022/01/27 00:16:59;;;;;;;31.52;11.20;;;;;;;11.20;45.60;102718.81;5053461;28;20067;-63
2022/01/27 00:19:24;;;;;;;37.28;12.30;;;;;;;11.23;45.27;102721.31;5054225;28;20363;-63
2022/01/27 00:21:50;;;;;;;28.83;10.90;;;;;;;11.21;45.42;102708.03;5054256;28;20021;-63
2022/01/27 00:24:16;;;;;;;28.70;9.60;;;;;;;11.19;45.35;102715.28;5053988;28;20474;-63
2022/01/27 00:26:42;;;;;;;33.35;11.55;;;;;;;11.16;45.96;102707.41;5054331;28;20033;-63
2022/01/27 00:29:07;;;;;;;26.30;9.85;;;;;;;11.14;45.64;102705.78;5036557;28;20479;-62
2022/01/27 00:31:32;;;;;;;33.20;10.85;;;;;;;11.11;45.88;102699.63;5053686;28;20051;-63
2022/01/27 00:34:03;;;;;;;31.80;10.82;;;;;;;11.15;45.35;102702.13;5053831;28;20032;-63
2022/01/27 00:36:28;;;;;;;31.10;11.15;;;;;;;11.14;45.24;102697.72;5053709;28;20108;-63
2022/01/27 00:38:54;;;;;;;28.60;10.38;;;;;;;11.18;46.04;102691.22;5053592;28;20100;-63
2022/01/27 00:41:20;;;;;;;34.00;11.13;;;;;;;11.16;45.77;102687.78;5053915;28;20093;-63
2022/01/27 00:43:46;;;;;;;30.48;10.85;;;;;;;11.17;45.79;102684.16;5053667;28;20057;-63
2022/01/27 00:46:16;;;;;;;29.80;10.90;;;;;;;11.17;45.38;102686.84;5035766;28;20071;-63
2022/01/27 00:48:41;;;;;;;29.50;11.02;;;;;;;11.17;45.79;102665.38;5036683;28;20044;-63
2022/01/27 00:51:09;;;;;;;35.97;10.43;;;;;;;11.09;45.67;102645.22;5053920;28;20025;-63
2022/01/27 00:53:44;;;;;;;29.27;10.40;;;;;;;11.20;45.78;102651.75;5035869;28;20049;-63
2022/01/27 00:56:38;;;;;;;25.00;10.40;;;;;;;11.18;45.23;102649.19;5053958;28;20433;-63
2022/01/27 00:59:25;;;;;;;26.30;10.95;;;;;;;11.17;45.76;102643.91;5052657;28;20033;-63
2022/01/27 01:04:38;;;;;;;27.42;10.63;;;;;;;11.09;45.51;102623.75;5053160;28;20105;-63
2022/01/27 01:07:05;;;;;;;29.52;11.65;;;;;;;10.92;46.15;102610.44;5053497;28;20043;-63
2022/01/27 01:15:11;;;;;;;27.33;10.82;;;;;;;11.11;46.13;102616.47;5053311;28;20032;-63
2022/01/27 01:17:48;;;;;;;30.92;8.68;;;;;;;11.14;45.87;102609.22;5053356;28;20466;-63
2022/01/27 01:20:46;;;;;;;26.25;9.23;;;;;;;11.10;45.98;102582.59;5035658;28;20059;-63
2022/01/27 01:34:32;;;;;;;28.05;10.60;;;;;;;11.04;45.94;102604.38;5053448;28;20530;-63
2022/01/27 01:36:47;;;;;;;19.88;8.68;;;;;;;11.05;46.07;102595.38;5035832;28;20036;-64
2022/01/27 01:39:13;;;;;;;26.95;10.73;;;;;;;11.03;45.59;102599.97;5036667;28;20104;-63
2022/01/27 01:41:40;;;;;;;30.00;9.30;;;;;;;11.05;46.30;102619.50;5035644;28;20017;-63
2022/01/27 01:44:05;;;;;;;31.60;9.38;;;;;;;11.07;46.24;102609.59;5053116;28;20021;-63
2022/01/27 01:46:31;;;;;;;26.52;10.35;;;;;;;11.07;45.64;102612.25;5035170;28;20032;-63
2022/01/27 01:48:56;;;;;;;27.83;9.95;;;;;;;11.04;46.31;102612.44;5053097;28;20029;-64
2022/01/27 01:51:28;;;;;;;25.48;10.48;;;;;;;11.09;45.90;102610.34;5052959;28;20147;-63
2022/01/27 01:53:54;;;;;;;25.95;8.85;;;;;;;11.13;46.34;102596.75;5052979;28;20025;-63
2022/01/27 01:56:19;;;;;;;30.67;10.18;;;;;;;11.15;46.09;102595.72;5053106;28;20020;-63
2022/01/27 01:58:45;;;;;;;27.55;10.43;;;;;;;11.15;45.92;102586.81;5052862;28;20100;-63
2022/01/27 02:01:10;;;;;;;29.42;9.57;;;;;;;11.20;46.17;102584.72;5052756;28;20475;-63
2022/01/27 02:03:35;;;;;;;25.25;9.65;;;;;;;11.22;45.86;102572.09;5035358;28;20467;-63
2022/01/27 02:06:01;;;;;;;27.23;10.48;;;;;;;11.24;45.72;102560.31;5052957;28;20055;-63
2022/01/27 02:19:15;;;;;;;24.65;9.50;;;;;;;11.17;46.22;102542.00;5037505;28;20063;-63
2022/01/27 02:22:07;;;;;;;27.20;9.93;;;;;;;11.14;46.08;102534.97;5053036;28;20036;-63
2022/01/27 02:24:33;;;;;;;24.50;10.02;;;;;;;11.11;46.08;102535.16;5035479;28;20112;-63
2022/01/27 02:27:00;;;;;;;27.27;8.50;;;;;;;11.08;46.25;102541.56;5067128;28;20397;-63
2022/01/27 02:29:26;;;;;;;30.98;10.13;;;;;;;11.10;46.59;102549.53;5068392;28;20489;-63
2022/01/27 02:31:54;;;;;;;34.17;9.77;;;;;;;11.10;46.46;102539.69;5075170;28;20486;-63
2022/01/27 02:34:20;;;;;;;31.13;9.75;;;;;;;11.11;46.35;102530.66;5057516;28;20029;-63
2022/01/27 02:36:45;;;;;;;28.23;9.15;;;;;;;11.13;46.06;102525.22;5075318;28;20039;-63
2022/01/27 02:39:11;;;;;;;28.77;10.02;;;;;;;11.18;46.09;102524.94;5057736;28;20100;-63
2022/01/27 02:41:50;;;;;;;25.92;9.52;;;;;;;11.16;46.31;102516.13;5075503;28;20036;-63
2022/01/27 02:44:47;;;;;;;23.45;8.77;;;;;;;11.17;46.30;102515.19;5075406;28;20477;-63
2022/01/27 02:47:14;;;;;;;27.27;8.95;;;;;;;11.22;46.01;102513.09;5055753;28;20494;-63
2022/01/27 02:49:39;;;;;;;27.08;10.00;;;;;;;11.26;46.00;102506.56;5075158;28;20028;-63
2022/01/27 02:52:05;;;;;;;28.95;9.85;;;;;;;11.29;46.27;102514.44;5040813;28;20038;-63
2022/01/27 02:54:30;;;;;;;19.92;8.77;;;;;;;11.33;46.44;102507.94;5075771;28;20509;-63
2022/01/27 02:56:56;;;;;;;22.83;9.40;;;;;;;11.35;45.64;102509.56;5075140;28;20111;-63
2022/01/27 02:59:21;;;;;;;28.73;9.48;;;;;;;11.38;46.16;102516.56;5075417;28;20032;-63
2022/01/27 03:01:48;;;;;;;26.33;8.50;;;;;;;11.36;45.95;102505.91;5075214;28;20063;-63
2022/01/27 03:04:14;;;;;;;19.85;7.97;;;;;;;11.40;46.19;102503.91;5074775;28;20056;-63
2022/01/27 03:06:39;;;;;;;22.30;8.52;;;;;;;11.40;45.83;102480.63;5074768;28;20020;-63
2022/01/27 03:09:05;;;;;;;21.52;8.25;;;;;;;11.38;46.16;102482.56;5074820;28;20039;-63
2022/01/27 03:11:48;;;;;;;23.92;9.38;;;;;;;11.44;46.49;102473.28;5074741;28;20126;-63
2022/01/27 03:14:17;;;;;;;19.98;8.48;;;;;;;11.42;45.82;102464.41;5074748;28;20024;-63
2022/01/27 03:16:43;;;;;;;21.48;8.98;;;;;;;11.44;46.32;102473.28;5071630;28;20033;-63
2022/01/27 03:19:08;;;;;;;27.08;9.65;;;;;;;11.45;46.25;102474.97;5046450;28;20032;-63
2022/01/27 03:21:34;;;;;;;23.45;8.88;;;;;;;11.41;46.79;102457.34;5065102;28;20109;-63
2022/01/27 03:23:59;;;;;;;27.52;9.63;;;;;;;11.48;46.41;102472.09;5062910;28;20021;-63
2022/01/27 03:26:25;;;;;;;23.08;8.25;;;;;;;11.51;45.87;102478.16;5064808;28;20350;-63
2022/01/27 03:28:51;;;;;;;22.83;8.80;;;;;;;11.51;46.60;102477.28;5060728;28;20025;-63
2022/01/27 03:31:16;;;;;;;21.80;8.10;;;;;;;11.54;46.88;102477.09;5062538;28;20114;-63
2022/01/27 03:33:42;;;;;;;22.17;9.13;;;;;;;11.55;46.90;102476.16;5035233;28;20028;-63
2022/01/27 03:36:09;;;;;;;32.50;10.18;;;;;;;11.56;46.32;102453.69;5054245;28;20459;-63
2022/01/27 03:38:35;;;;;;;22.75;10.07;;;;;;;11.56;46.14;102456.38;5054494;28;20483;-63
2022/01/27 03:41:05;;;;;;;21.95;8.60;;;;;;;11.58;46.66;102444.63;5054978;28;20028;-63
2022/01/27 03:43:30;;;;;;;19.35;7.40;;;;;;;11.61;46.59;102454.31;5055070;28;20483;-63
2022/01/27 03:45:56;;;;;;;22.23;8.93;;;;;;;11.64;46.40;102456.81;5055027;28;20029;-63
2022/01/27 03:48:21;;;;;;;23.40;8.13;;;;;;;11.67;46.86;102448.53;5037123;28;20020;-63
2022/01/27 03:50:46;;;;;;;18.17;8.25;;;;;;;11.69;46.88;102430.56;5037055;28;20087;-63
2022/01/27 03:53:14;;;;;;;19.48;8.55;;;;;;;11.74;46.50;102444.53;5055078;28;20029;-63
2022/01/27 03:55:40;;;;;;;23.13;8.63;;;;;;;11.76;46.49;102442.63;5054844;28;20096;-63
2022/01/27 03:58:05;;;;;;;20.85;7.60;;;;;;;11.77;46.49;102432.75;5054624;28;20060;-63
2022/01/27 04:00:30;;;;;;;19.88;8.20;;;;;;;11.77;45.97;102433.63;5054741;28;20087;-63
2022/01/27 04:03:02;;;;;;;21.42;9.18;;;;;;;11.78;46.28;102419.22;5054673;28;20079;-63
2022/01/27 04:05:34;;;;;;;21.52;8.48;;;;;;;11.78;46.04;102413.00;5037844;28;20024;-63
2022/01/27 04:08:00;;;;;;;17.63;8.63;;;;;;;11.78;46.51;102413.00;5036813;28;20029;-63
2022/01/27 04:10:25;;;;;;;19.65;8.23;;;;;;;11.81;46.20;102419.00;5054500;28;20544;-63
2022/01/27 04:12:50;;;;;;;22.38;8.13;;;;;;;11.80;46.62;102437.94;5054509;28;20024;-63
2022/01/27 04:15:16;;;;;;;22.55;8.82;;;;;;;11.77;45.92;102433.63;5054179;28;20546;-63
2022/01/27 04:17:41;;;;;;;20.15;7.78;;;;;;;11.78;46.19;102424.59;5054102;28;20036;-63
2022/01/27 04:20:07;;;;;;;22.63;8.38;;;;;;;11.78;46.70;102419.22;5054441;28;20082;-63
2022/01/27 04:22:32;;;;;;;23.80;9.35;;;;;;;11.82;45.69;102423.44;5054402;28;20025;-63
2022/01/27 04:24:58;;;;;;;25.38;9.50;;;;;;;11.82;46.70;102420.75;5036511;28;20433;-63
2022/01/27 04:27:29;;;;;;;22.00;8.98;;;;;;;11.82;46.52;102414.53;5036491;28;20063;-63
2022/01/27 04:29:54;;;;;;;21.23;7.90;;;;;;;11.81;46.56;102416.34;5054257;28;20546;-63
2022/01/27 04:32:25;;;;;;;21.90;8.43;;;;;;;11.81;45.99;102410.97;5053902;28;20128;-63
2022/01/27 04:34:53;;;;;;;19.67;8.07;;;;;;;11.85;46.68;102419.69;5054256;28;20039;-63
2022/01/27 04:37:22;;;;;;;19.52;7.88;;;;;;;11.85;47.21;102420.56;5053965;28;20100;-63
2022/01/27 04:40:12;;;;;;;20.23;7.05;;;;;;;11.86;46.54;102411.56;5053910;28;20044;-63
2022/01/27 04:45:23;;;;;;;23.75;8.35;;;;;;;11.87;47.10;102415.94;5053421;28;20048;-63
2022/01/27 04:47:53;;;;;;;25.80;7.75;;;;;;;11.86;46.95;102400.81;5053854;28;20071;-63
2022/01/27 04:50:18;;;;;;;20.38;7.45;;;;;;;11.90;46.72;102405.00;5053930;28;20079;-63
2022/01/27 04:52:46;;;;;;;22.75;8.50;;;;;;;11.90;46.42;102399.63;5053872;28;20024;-63
2022/01/27 04:55:14;;;;;;;26.80;8.73;;;;;;;11.86;46.95;102391.91;5053997;28;20483;-63
2022/01/27 04:57:43;;;;;;;21.30;8.18;;;;;;;11.92;46.74;102392.34;5053705;28;20056;-63
2022/01/27 05:00:11;;;;;;;23.73;9.07;;;;;;;11.94;46.46;102392.25;5036367;28;20048;-63
2022/01/27 05:02:45;;;;;;;19.85;8.32;;;;;;;11.93;47.12;102391.38;5036176;28;20025;-63
2022/01/27 05:05:11;;;;;;;19.08;7.28;;;;;;;11.94;47.02;102382.38;5035651;28;20029;-63
2022/01/27 05:07:38;;;;;;;23.27;7.95;;;;;;;11.97;46.65;102371.44;5053944;28;20390;-63
2022/01/27 05:10:10;;;;;;;21.15;8.40;;;;;;;12.00;47.05;102376.63;5035921;28;20067;-63
2022/01/27 05:12:45;;;;;;;17.67;7.65;;;;;;;12.01;46.72;102372.94;5053403;28;20483;-63
2022/01/27 05:15:10;;;;;;;26.10;8.57;;;;;;;12.02;46.38;102360.38;5053477;28;20053;-63
2022/01/27 05:17:36;;;;;;;22.85;8.63;;;;;;;12.02;46.79;102353.19;5053591;28;20032;-63
2022/01/27 05:20:01;;;;;;;18.00;7.88;;;;;;;12.02;46.44;102339.78;5053888;28;20025;-63
2022/01/27 05:22:27;;;;;;;22.65;9.13;;;;;;;12.02;46.35;102326.34;5053317;28;20020;-64
2022/01/27 05:24:52;;;;;;;22.50;8.75;;;;;;;11.98;46.61;102335.56;5053264;28;20025;-63
2022/01/27 05:27:17;;;;;;;23.83;7.25;;;;;;;11.96;46.82;102334.81;5035399;28;20414;-63
2022/01/27 05:29:43;;;;;;;19.92;7.32;;;;;;;11.97;47.08;102338.34;5052947;28;20100;-63
2022/01/27 05:32:08;;;;;;;18.85;8.48;;;;;;;11.99;46.82;102337.28;5015534;28;20049;-63
2022/01/27 05:34:34;;;;;;;21.30;8.05;;;;;;;12.00;46.99;102341.72;5033228;28;20483;-63
2022/01/27 05:36:59;;;;;;;18.20;7.00;;;;;;;12.02;46.65;102347.81;5033483;28;20144;-63
2022/01/27 05:39:24;;;;;;;23.13;9.60;;;;;;;12.02;46.60;102337.09;5033307;28;20107;-63
2022/01/27 05:41:50;;;;;;;23.70;8.82;;;;;;;12.03;46.45;102337.94;5033418;28;20033;-63
2022/01/27 05:44:15;;;;;;;22.55;8.13;;;;;;;12.03;46.42;102333.41;5033278;28;20045;-63
2022/01/27 05:46:41;;;;;;;24.50;8.55;;;;;;;12.04;47.35;102345.03;5033217;28;20033;-63
2022/01/27 05:49:06;;;;;;;28.45;8.43;;;;;;;12.06;47.09;102322.47;5033074;28;20525;-63
2022/01/27 05:51:32;;;;;;;20.23;8.93;;;;;;;12.07;47.21;102318.84;5033127;28;20033;-63
2022/01/27 05:53:57;;;;;;;23.63;8.88;;;;;;;12.06;46.67;102322.47;5033383;28;20028;-63
2022/01/27 05:56:22;;;;;;;18.83;8.10;;;;;;;12.05;46.71;102320.78;5033083;28;20112;-64
2022/01/27 05:58:48;;;;;;;25.63;8.57;;;;;;;12.06;46.49;102317.09;5036547;28;20029;-63
2022/01/27 06:01:13;;;;;;;23.40;8.73;;;;;;;12.05;47.22;102323.47;5036996;28;20390;-64
2022/01/27 06:03:39;;;;;;;22.50;9.15;;;;;;;12.03;47.48;102322.66;5036955;28;20390;-63
2022/01/27 06:06:04;;;;;;;27.02;7.82;;;;;;;12.07;46.94;102316.16;5036825;28;20109;-63
2022/01/27 06:08:30;;;;;;;23.55;8.10;;;;;;;12.10;46.83;102320.44;5037046;28;20017;-63
2022/01/27 06:10:56;;;;;;;36.65;9.27;;;;;;;12.07;47.43;102318.84;5035328;28;20021;-63
2022/01/27 06:13:22;;;;;;;23.85;8.80;;;;;;;12.06;46.48;102346.66;5036574;28;20056;-63
2022/01/27 06:15:47;;;;;;;28.00;9.98;;;;;;;12.05;47.51;102310.03;5035530;28;20029;-63
2022/01/27 06:18:13;;;;;;;22.10;9.18;;;;;;;12.07;46.59;102302.72;5036490;28;20080;-64
2022/01/27 06:20:39;;;;;;;30.63;9.32;;;;;;;12.08;47.42;102311.66;5037161;28;20026;-63
2022/01/27 06:23:05;;;;;;;23.48;8.02;;;;;;;12.11;47.47;102312.31;5035582;28;20025;-63
2022/01/27 06:25:30;;;;;;;25.30;9.20;;;;;;;12.12;46.95;102305.09;5036568;28;20117;-63
2022/01/27 06:27:56;;;;;;;32.30;9.55;;;;;;;12.11;46.65;102288.13;5053971;28;20387;-63
2022/01/27 06:30:21;;;;;;;23.10;9.45;;;;;;;12.12;47.21;102279.09;5057812;28;20029;-63
2022/01/27 06:32:47;;;;;;;22.50;8.80;;;;;;;12.09;46.74;102267.69;5076610;28;20028;-63
2022/01/27 06:35:12;;;;;;;19.45;8.70;;;;;;;12.04;47.16;102249.22;5076562;28;20059;-63
2022/01/27 06:37:41;;;;;;;25.48;8.68;;;;;;;12.03;46.75;102254.69;5076286;28;20370;-63
2022/01/27 06:40:10;;;;;;;23.20;7.90;;;;;;;11.98;47.32;102249.63;5058921;28;20025;-63
2022/01/27 06:42:35;;;;;;;24.85;8.85;;;;;;;11.99;47.31;102256.72;5076230;28;20032;-63
2022/01/27 06:45:00;;;;;;;27.42;9.75;;;;;;;11.95;47.49;102247.13;5058362;28;20154;-63
2022/01/27 06:47:26;;;;;;;25.95;9.30;;;;;;;11.98;47.08;102246.94;5058974;28;20150;-63
2022/01/27 06:49:51;;;;;;;29.85;9.57;;;;;;;11.98;47.60;102249.63;5076616;28;20062;-63
2022/01/27 06:52:19;;;;;;;33.17;11.13;;;;;;;11.95;46.99;102271.31;5076283;28;20020;-62
2022/01/27 06:54:44;;;;;;;31.88;9.40;;;;;;;11.95;47.39;102255.19;5075628;28;20021;-63
2022/01/27 06:57:10;;;;;;;31.25;9.80;;;;;;;11.96;47.42;102256.94;5058034;28;20074;-62
2022/01/27 06:59:35;;;;;;;18.95;9.30;;;;;;;11.98;47.42;102264.88;5058008;28;20028;-62
2022/01/27 07:02:01;;;;;;;23.88;9.82;;;;;;;12.00;47.44;102265.66;5075712;28;20032;-63
2022/01/27 07:04:26;;;;;;;21.58;8.80;;;;;;;12.01;47.62;102268.22;5076115;28;20031;-63
2022/01/27 07:06:52;;;;;;;21.85;9.32;;;;;;;12.04;47.26;102276.06;5075821;28;20033;-63
2022/01/27 07:09:18;;;;;;;25.73;9.18;;;;;;;12.03;47.37;102268.97;5075377;28;20078;-62
2022/01/27 07:11:44;;;;;;;28.35;9.95;;;;;;;12.05;47.14;102271.56;5057799;28;20050;-63
2022/01/27 07:14:09;;;;;;;24.30;8.75;;;;;;;12.06;47.76;102263.38;5057994;28;20025;-63
2022/01/27 07:16:35;;;;;;;31.05;10.10;;;;;;;12.14;47.98;102262.91;5075846;28;20025;-63
2022/01/27 07:19:00;;;;;;;32.13;10.88;;;;;;;12.19;48.02;102263.44;5075668;28;20025;-63
2022/01/27 07:21:25;;;;;;;36.60;10.55;;;;;;;12.22;47.35;102266.78;5075740;28;20490;-62
2022/01/27 07:23:51;;;;;;;29.70;11.40;;;;;;;12.18;47.19;102241.06;5075159;28;20398;-62
2022/01/27 07:26:16;;;;;;;28.05;10.45;;;;;;;12.25;47.53;102246.91;5075031;28;20024;-63
2022/01/27 07:28:42;;;;;;;34.65;10.93;;;;;;;12.26;47.99;102244.09;5074958;28;20024;-63
2022/01/27 07:31:07;;;;;;;29.05;9.93;;;;;;;12.30;47.21;102241.19;5074888;28;20116;-62
2022/01/27 07:33:33;;;;;;;30.70;10.32;;;;;;;12.27;47.72;102240.44;5074956;28;20025;-63
2022/01/27 07:35:58;;;;;;;28.58;9.95;;;;;;;12.27;47.62;102237.78;5074979;28;20017;-63
2022/01/27 07:38:25;;;;;;;24.42;10.38;;;;;;;12.26;47.28;102227.09;5074717;28;20056;-63
2022/01/27 07:40:50;;;;;;;29.15;9.75;;;;;;;12.28;47.75;102226.03;5074802;28;20028;-62
2022/01/27 07:43:16;;;;;;;23.52;8.70;;;;;;;12.30;47.89;102234.00;5074830;28;20027;-63
2022/01/27 07:45:42;;;;;;;29.30;9.52;;;;;;;12.30;47.08;102233.13;5074794;28;20035;-62
2022/01/27 07:48:07;;;;;;;25.10;9.40;;;;;;;12.30;47.12;102228.63;5074868;28;20099;-62
2022/01/27 07:50:33;;;;;;;29.10;11.00;;;;;;;12.35;48.09;102234.53;5056950;28;20032;-63
2022/01/27 07:53:01;;;;;;;25.42;9.60;;;;;;;12.37;47.19;102226.41;5074734;28;20027;-62
2022/01/27 07:55:27;;;;;;;24.20;9.85;;;;;;;12.43;47.33;102250.13;5074557;28;20021;-63
2022/01/27 07:57:52;;;;;;;37.17;9.98;;;;;;;12.45;47.38;102267.03;5074310;28;20162;-63
2022/01/27 08:00:17;;;;;;;26.23;10.60;;;;;;;12.47;47.42;102267.78;5074483;28;20032;-63
2022/01/27 08:02:45;;;;;;;27.10;9.77;;;;;;;12.50;47.75;102263.06;5074313;28;20078;-62
2022/01/27 08:05:10;;;;;;;27.10;10.15;;;;;;;12.50;48.37;102275.63;5074485;28;20379;-63
2022/01/27 08:07:36;;;;;;;24.98;9.70;;;;;;;12.57;48.12;102260.78;5074230;28;20031;-63
2022/01/27 08:10:01;;;;;;;25.60;9.57;;;;;;;12.59;47.71;102246.25;5074368;28;20113;-62
2022/01/27 08:12:26;;;;;;;26.55;9.32;;;;;;;12.63;47.44;102247.78;5074200;28;20090;-63
2022/01/27 08:14:52;;;;;;;32.63;11.48;;;;;;;12.66;47.68;102268.22;5074378;28;20078;-63
2022/01/27 08:17:17;;;;;;;26.02;9.68;;;;;;;12.65;48.29;102261.97;5074233;28;20058;-63
2022/01/27 08:19:43;;;;;;;30.38;10.95;;;;;;;12.68;48.38;102258.19;5055855;28;20029;-62
2022/01/27 08:22:10;;;;;;;23.27;9.27;;;;;;;12.70;47.75;102254.44;5074070;28;20072;-62
2022/01/27 08:24:36;;;;;;;24.90;9.80;;;;;;;12.71;47.72;102258.84;5074346;28;20112;-62
2022/01/27 08:27:05;;;;;;;29.27;9.18;;;;;;;12.69;47.43;102250.03;5074146;28;20037;-63
2022/01/27 08:29:39;;;;;;;33.95;11.10;;;;;;;12.70;48.27;102253.59;5074282;28;20027;-63
2022/01/27 08:32:09;;;;;;;26.30;9.45;;;;;;;12.72;48.10;102247.16;5073876;28;20098;-62
2022/01/27 08:34:37;;;;;;;27.17;9.13;;;;;;;12.73;47.31;102245.31;5073893;28;20044;-62
2022/01/27 08:37:05;;;;;;;26.67;8.73;;;;;;;12.72;48.52;102262.41;5074172;28;20046;-62
2022/01/27 08:39:31;;;;;;;30.85;9.32;;;;;;;12.71;47.48;102253.47;5055736;28;20075;-62
2022/01/27 08:41:56;;;;;;;24.13;9.88;;;;;;;12.76;48.03;102262.06;5073763;28;20414;-62
2022/01/27 08:44:22;;;;;;;26.80;9.48;;;;;;;12.75;48.48;102268.44;5074034;28;20032;-62
2022/01/27 08:46:47;;;;;;;22.63;10.10;;;;;;;12.72;47.84;102275.84;5074067;28;20027;-62
2022/01/27 08:49:13;;;;;;;25.75;8.77;;;;;;;12.71;48.56;102264.22;5073673;28;20032;-62
2022/01/27 08:51:38;;;;;;;29.63;10.85;;;;;;;12.74;47.59;102276.59;5073684;28;20020;-62
2022/01/27 08:54:04;;;;;;;27.70;8.73;;;;;;;12.72;48.04;102273.16;5073507;28;20021;-62
2022/01/27 08:56:30;;;;;;;25.27;10.30;;;;;;;12.79;47.82;102263.69;5073791;28;20474;-62
2022/01/27 08:58:56;;;;;;;22.98;9.60;;;;;;;12.78;48.18;102257.47;5039245;28;20027;-62
2022/01/27 09:01:23;;;;;;;25.08;9.50;;;;;;;12.81;47.25;102257.22;5073295;28;20032;-62
2022/01/27 09:03:50;;;;;;;23.08;8.98;;;;;;;12.87;48.42;102261.31;5073585;28;20028;-62
2022/01/27 09:06:18;;;;;;;25.23;9.50;;;;;;;12.87;48.38;102252.41;5055455;28;20025;-62
2022/01/27 09:08:43;;;;;;;23.67;9.82;;;;;;;12.81;48.53;102256.38;5073645;28;20036;-62
2022/01/27 09:11:09;;;;;;;22.02;9.63;;;;;;;12.81;48.89;102256.38;5073336;28;20032;-62
2022/01/27 09:13:34;;;;;;;25.52;10.35;;;;;;;12.80;48.77;102254.66;5073341;28;20024;-62
2022/01/27 09:16:00;;;;;;;27.02;9.65;;;;;;;12.82;48.71;102258.09;5073642;28;20024;-62
2022/01/27 09:18:26;;;;;;;23.02;9.00;;;;;;;12.85;48.71;102247.13;5055819;28;20067;-62
2022/01/27 09:20:51;;;;;;;28.35;10.60;;;;;;;12.84;48.99;102256.19;5073844;28;20424;-62
2022/01/27 09:23:17;;;;;;;25.17;8.95;;;;;;;12.80;48.32;102249.28;5073518;28;20024;-62
2022/01/27 09:25:45;;;;;;;32.58;10.32;;;;;;;12.83;48.87;102258.00;5055146;28;20082;-62
2022/01/27 09:28:12;;;;;;;35.47;9.07;;;;;;;12.81;49.14;102251.00;5073327;28;20494;-62
2022/01/27 09:30:38;;;;;;;30.85;10.60;;;;;;;12.86;48.93;102254.22;5073001;28;20052;-63
2022/01/27 09:33:04;;;;;;;21.85;8.38;;;;;;;12.86;48.98;102251.53;5075429;28;20123;-62
2022/01/27 09:35:31;;;;;;;26.48;10.60;;;;;;;12.81;49.04;102241.09;5059734;28;20052;-62
2022/01/27 09:37:57;;;;;;;24.63;9.00;;;;;;;12.86;48.55;102256.91;5077255;28;20025;-62
2022/01/27 09:40:22;;;;;;;22.02;8.27;;;;;;;12.88;49.50;102257.66;5077482;28;20028;-62
2022/01/27 09:42:51;;;;;;;26.30;10.60;;;;;;;12.89;48.54;102255.84;5077279;28;20028;-62
2022/01/27 09:45:18;;;;;;;29.90;10.05;;;;;;;12.91;49.77;102260.13;5059835;28;20474;-62
2022/01/27 09:47:53;;;;;;;22.58;9.75;;;;;;;12.94;49.46;102257.22;5077381;28;20036;-62
2022/01/27 09:50:26;;;;;;;25.08;9.27;;;;;;;12.98;48.65;102268.63;5060337;28;20105;-62
2022/01/27 09:52:51;;;;;;;26.98;9.93;;;;;;;12.96;49.30;102249.03;5077200;28;20107;-62
2022/01/27 09:55:17;;;;;;;23.17;9.68;;;;;;;12.98;48.30;102247.94;5077035;28;20099;-63
2022/01/27 09:57:42;;;;;;;21.95;9.43;;;;;;;13.05;49.23;102251.94;5076902;28;20020;-62
2022/01/27 10:00:08;;;;;;;20.70;9.32;;;;;;;13.04;49.42;102247.53;5058828;28;20017;-62
2022/01/27 10:02:34;;;;;;;17.83;9.07;;;;;;;13.05;48.83;102257.31;5077050;28;20028;-62
2022/01/27 10:04:59;;;;;;;28.13;10.40;;;;;;;13.07;50.08;102251.81;5076969;28;20028;-62
2022/01/27 10:07:38;;;;;;;28.00;9.57;;;;;;;13.07;49.76;102262.56;5076882;28;20070;-62
2022/01/27 10:10:05;;;;;;;27.23;9.07;;;;;;;13.07;50.05;102255.41;5076814;28;20496;-62
2022/01/27 10:12:39;;;;;;;26.98;10.25;;;;;;;13.11;49.08;102253.38;5076925;28;20478;-62
2022/01/27 10:15:10;;;;;;;26.77;10.00;;;;;;;13.13;49.85;102244.22;5076631;28;20016;-62
2022/01/27 10:17:39;;;;;;;24.23;8.73;;;;;;;13.15;49.88;102244.13;5076584;28;20035;-62
2022/01/27 10:20:24;;;;;;;24.65;9.48;;;;;;;13.20;49.85;102242.81;5076969;28;20050;-62
2022/01/27 10:23:22;;;;;;;23.35;9.40;;;;;;;13.24;49.18;102252.38;5076122;28;20040;-62
2022/01/27 10:25:55;;;;;;;27.42;10.95;;;;;;;13.24;49.30;102244.28;5076029;28;20029;-62
2022/01/27 10:28:36;;;;;;;25.80;12.07;;;;;;;13.26;48.85;102250.41;5076159;28;20428;-62
2022/01/27 10:31:08;;;;;;;22.67;10.18;;;;;;;13.23;50.04;102245.25;5076217;28;20414;-62
2022/01/27 10:33:45;;;;;;;24.17;9.00;;;;;;;13.27;50.02;102244.06;5076245;28;20028;-62
2022/01/27 10:36:28;;;;;;;24.00;9.43;;;;;;;13.27;49.63;102244.06;5076110;28;20717;-62
2022/01/27 10:38:58;;;;;;;24.27;10.27;;;;;;;13.31;49.16;102248.28;5058647;28;20483;-62
2022/01/27 10:41:30;;;;;;;21.10;8.65;;;;;;;13.31;49.29;102240.19;5058360;28;20035;-62
2022/01/27 10:44:16;;;;;;;20.52;8.50;;;;;;;13.31;50.71;102248.28;5075701;28;20028;-62
2022/01/27 10:47:09;;;;;;;20.27;8.82;;;;;;;13.31;50.11;102240.19;5058494;28;20032;-62
2022/01/27 10:49:40;;;;;;;24.77;9.63;;;;;;;13.35;49.75;102249.75;5076277;28;20077;-62
2022/01/27 10:52:11;;;;;;;21.75;8.35;;;;;;;13.39;50.95;102243.19;5075760;28;20098;-61
2022/01/27 10:54:38;;;;;;;22.27;10.15;;;;;;;13.45;49.30;102241.00;5076111;28;20037;-62
2022/01/27 10:57:09;;;;;;;21.00;9.48;;;;;;;13.47;50.22;102239.91;5075779;28;20028;-62
2022/01/27 10:59:35;;;;;;;16.80;8.02;;;;;;;13.53;50.07;102249.38;5075715;28;20031;-62
2022/01/27 11:02:09;;;;;;;14.85;7.80;;;;;;;13.55;49.94;102240.19;5075631;28;20115;-62
2022/01/27 11:04:37;;;;;;;17.30;7.35;;;;;;;13.54;50.43;102234.94;5075489;28;20034;-62
2022/01/27 11:07:06;;;;;;;18.60;7.53;;;;;;;13.59;51.04;102244.41;5075549;28;20028;-62
2022/01/27 11:09:38;;;;;;;15.75;7.55;;;;;;;13.61;50.39;102234.38;5075667;28;20051;-62
2022/01/27 11:12:11;;;;;;;15.37;7.30;;;;;;;13.64;49.95;102228.75;5075810;28;20439;-62
2022/01/27 11:14:37;;;;;;;20.55;8.15;;;;;;;13.64;50.10;102235.97;5075452;28;20344;-62
2022/01/27 11:17:08;;;;;;;19.25;6.72;;;;;;;13.63;50.78;102239.63;5075462;28;20534;-62
2022/01/27 11:19:55;;;;;;;13.65;6.97;;;;;;;13.64;50.21;102242.22;5075357;28;20486;-62
2022/01/27 11:27:25;;;;;;;12.00;6.53;;;;;;;13.68;51.21;102216.75;5058016;28;20032;-62
2022/01/27 11:30:16;;;;;;;14.10;7.80;;;;;;;13.70;50.26;102208.59;5075316;28;20051;-62
2022/01/27 11:33:06;;;;;;;19.15;9.15;;;;;;;13.70;50.19;102209.47;5074887;28;20087;-62
2022/01/27 11:35:32;;;;;;;15.82;7.68;;;;;;;13.69;51.66;102205.03;5074968;28;20501;-62
2022/01/27 11:38:04;;;;;;;15.55;7.80;;;;;;;13.68;50.34;102206.00;5075093;28;20032;-62
2022/01/27 11:40:42;;;;;;;15.20;8.27;;;;;;;13.69;50.49;102201.47;5074937;28;20107;-62
2022/01/27 11:43:11;;;;;;;14.30;6.60;;;;;;;13.68;51.17;102207.84;5074885;28;20497;-62
2022/01/27 11:45:48;;;;;;;17.13;7.38;;;;;;;13.66;51.62;102199.88;5074567;28;20031;-62
2022/01/27 11:48:22;;;;;;;15.18;6.90;;;;;;;13.67;51.59;102193.53;5074706;28;20052;-62
2022/01/27 11:50:58;;;;;;;16.60;6.63;;;;;;;13.69;51.72;102191.56;5056652;28;20099;-62
2022/01/27 11:53:30;;;;;;;14.90;7.57;;;;;;;13.72;50.84;102201.25;5074833;28;20020;-62
2022/01/27 11:55:57;;;;;;;10.48;6.10;;;;;;;13.72;50.50;102195.88;5073530;28;20020;-62
2022/01/27 11:58:24;;;;;;;13.95;6.95;;;;;;;13.74;51.29;102200.16;5074481;28;20079;-62
2022/01/27 12:01:18;;;;;;;16.60;7.82;;;;;;;13.75;51.81;102195.63;5074508;28;20020;-62